createdAt,value
2023-04-15T00:01:49.993Z,13.59
2023-04-15T00:04:18.493Z,13.15
2023-04-15T00:06:53.469Z,14.10
2023-04-15T00:09:21.648Z,14.98
2023-04-15T00:11:50.689Z,15.49
2023-04-15T00:14:18.595Z,15.53
2023-04-15T00:16:46.633Z,14.50
2023-04-15T00:19:14.649Z,13.46
2023-04-15T00:21:42.582Z,13.02
2023-04-15T00:24:10.601Z,14.00
2023-04-15T00:26:38.634Z,14.94
2023-04-15T00:29:06.737Z,15.47
2023-04-15T00:31:34.644Z,15.53
2023-04-15T00:34:02.670Z,14.49
2023-04-15T00:36:31.857Z,13.38
2023-04-15T00:38:59.957Z,12.91
2023-04-15T00:41:28.128Z,13.83
2023-04-15T00:43:56.050Z,14.70
2023-04-15T00:46:27.127Z,15.25
2023-04-15T00:48:55.420Z,15.34
2023-04-15T00:51:23.604Z,14.22
2023-04-15T00:53:52.155Z,13.11
2023-04-15T00:56:24.480Z,12.75
2023-04-15T00:58:52.586Z,14.04
2023-04-15T01:01:26.317Z,15.09
2023-04-15T01:03:56.671Z,15.40
2023-04-15T01:06:24.899Z,14.28
2023-04-15T01:08:54.274Z,13.20
2023-04-15T01:11:24.317Z,12.79
2023-04-15T01:13:53.043Z,14.03
2023-04-15T01:16:21.406Z,15.20
2023-04-15T01:18:49.522Z,15.60
2023-04-15T01:21:18.318Z,14.45
2023-04-15T01:23:49.183Z,13.23
2023-04-15T01:26:17.732Z,12.42
2023-04-15T01:28:47.099Z,12.28
2023-04-15T01:31:15.605Z,13.67
2023-04-15T01:33:43.959Z,14.87
2023-04-15T01:36:11.847Z,15.22
2023-04-15T01:38:39.973Z,14.17
2023-04-15T01:41:08.736Z,13.01
2023-04-15T01:43:37.425Z,12.22
2023-04-15T01:46:06.401Z,12.07
2023-04-15T01:48:34.675Z,13.38
2023-04-15T01:51:05.137Z,14.43
2023-04-15T01:53:33.696Z,14.96
2023-04-15T01:56:01.618Z,15.06
2023-04-15T01:58:29.575Z,13.99
2023-04-15T02:00:57.693Z,12.94
2023-04-15T02:03:25.871Z,12.23
2023-04-15T02:05:53.954Z,11.99
2023-04-15T02:08:22.693Z,13.14
2023-04-15T02:10:51.007Z,14.22
2023-04-15T02:13:19.164Z,14.61
2023-04-15T02:15:48.885Z,13.63
2023-04-15T02:18:17.175Z,12.66
2023-04-15T02:20:45.616Z,11.95
2023-04-15T02:23:13.762Z,11.75
2023-04-15T02:25:53.907Z,12.98
2023-04-15T02:28:22.470Z,14.32
2023-04-15T02:30:54.566Z,14.78
2023-04-15T02:33:22.626Z,13.74
2023-04-15T02:35:50.957Z,12.68
2023-04-15T02:38:18.907Z,11.89
2023-04-15T02:40:46.845Z,11.60
2023-04-15T02:43:14.779Z,12.68
2023-04-15T02:45:43.879Z,13.68
2023-04-15T02:48:11.943Z,14.30
2023-04-15T02:50:40.837Z,14.37
2023-04-15T02:53:10.596Z,13.28
2023-04-15T02:55:38.539Z,12.18
2023-04-15T02:58:07.692Z,11.61
2023-04-15T03:00:35.657Z,12.59
2023-04-15T03:03:05.339Z,13.51
2023-04-15T03:05:33.665Z,13.58
2023-04-15T03:08:03.262Z,12.57
2023-04-15T03:10:31.736Z,11.59
2023-04-15T03:12:59.711Z,11.18
2023-04-15T03:15:28.068Z,12.18
2023-04-15T03:17:56.647Z,13.26
2023-04-15T03:20:25.110Z,13.87
2023-04-15T03:22:53.330Z,14.04
2023-04-15T03:25:22.029Z,12.98
2023-04-15T03:27:49.891Z,11.93
2023-04-15T03:30:18.918Z,11.22
2023-04-15T03:32:47.113Z,10.69
2023-04-15T03:35:15.131Z,10.66
2023-04-15T03:37:42.973Z,12.10
2023-04-15T03:40:11.643Z,13.31
2023-04-15T03:42:39.493Z,13.63
2023-04-15T03:45:07.906Z,12.47
2023-04-15T03:47:36.022Z,11.18
2023-04-15T03:50:04.440Z,10.30
2023-04-15T03:52:32.319Z,10.73
2023-04-15T03:55:00.331Z,11.95
2023-04-15T03:57:28.258Z,12.79
2023-04-15T03:59:56.350Z,12.82
2023-04-15T04:02:24.496Z,11.60
2023-04-15T04:04:53.303Z,10.38
2023-04-15T04:07:23.811Z,9.91
2023-04-15T04:09:51.725Z,11.06
2023-04-15T04:12:19.697Z,12.09
2023-04-15T04:14:48.435Z,12.26
2023-04-15T04:17:16.282Z,10.96
2023-04-15T04:19:44.194Z,9.82
2023-04-15T04:22:12.267Z,9.43
2023-04-15T04:24:40.409Z,10.76
2023-04-15T04:27:08.500Z,12.10
2023-04-15T04:29:36.402Z,12.91
2023-04-15T04:32:04.354Z,12.97
2023-04-15T04:34:32.683Z,11.68
2023-04-15T04:37:00.848Z,10.37
2023-04-15T04:39:28.780Z,10.03
2023-04-15T04:41:56.639Z,11.30
2023-04-15T04:44:24.448Z,12.36
2023-04-15T04:46:52.474Z,12.69
2023-04-15T04:49:20.525Z,11.53
2023-04-15T04:51:49.024Z,10.36
2023-04-15T04:54:17.732Z,9.90
2023-04-15T04:56:45.661Z,11.09
2023-04-15T04:59:14.102Z,12.13
2023-04-15T05:01:42.172Z,12.49
2023-04-15T05:04:10.194Z,11.55
2023-04-15T05:06:38.320Z,10.48
2023-04-15T05:09:06.375Z,10.69
2023-04-15T05:11:34.353Z,11.99
2023-04-15T05:14:02.473Z,13.00
2023-04-15T05:16:30.447Z,13.47
2023-04-15T05:18:58.385Z,12.55
2023-04-15T05:21:27.787Z,11.53
2023-04-15T05:23:55.758Z,10.80
2023-04-15T05:26:24.941Z,10.78
2023-04-15T05:28:52.860Z,12.01
2023-04-15T05:31:21.256Z,13.03
2023-04-15T05:33:49.265Z,12.99
2023-04-15T05:36:17.483Z,12.07
2023-04-15T05:38:45.463Z,11.34
2023-04-15T05:41:17.098Z,11.25
2023-04-15T05:43:46.583Z,12.51
2023-04-15T05:46:14.497Z,12.82
2023-04-15T05:48:42.489Z,12.07
2023-04-15T05:51:10.596Z,11.37
2023-04-15T05:53:38.939Z,10.92
2023-04-15T05:56:07.170Z,10.97
2023-04-15T05:58:35.061Z,12.49
2023-04-15T06:01:03.620Z,13.28
2023-04-15T06:03:31.899Z,12.65
2023-04-15T06:06:01.026Z,11.75
2023-04-15T06:08:29.067Z,11.29
2023-04-15T06:10:58.747Z,10.95
2023-04-15T06:13:27.291Z,11.66
2023-04-15T06:15:55.574Z,12.79
2023-04-15T06:18:24.512Z,12.41
2023-04-15T06:20:52.512Z,11.73
2023-04-15T06:23:20.496Z,11.23
2023-04-15T06:25:48.664Z,10.94
2023-04-15T06:28:16.700Z,10.83
2023-04-15T06:30:44.709Z,11.22
2023-04-15T06:33:12.757Z,12.65
2023-04-15T06:35:41.168Z,12.66
2023-04-15T06:38:09.040Z,12.10
2023-04-15T06:40:37.017Z,11.75
2023-04-15T06:43:05.038Z,11.50
2023-04-15T06:45:33.357Z,11.30
2023-04-15T06:48:01.377Z,11.09
2023-04-15T06:50:29.377Z,10.90
2023-04-15T06:52:57.446Z,10.76
2023-04-15T06:55:25.312Z,10.73
2023-04-15T06:57:53.415Z,10.72
2023-04-15T07:00:21.450Z,10.77
2023-04-15T07:02:49.482Z,10.80
2023-04-15T07:05:17.459Z,10.80
2023-04-15T07:07:45.457Z,10.82
2023-04-15T07:10:15.060Z,10.84
2023-04-15T07:12:43.013Z,10.84
2023-04-15T07:15:11.280Z,10.85
2023-04-15T07:17:39.347Z,10.84
2023-04-15T07:20:08.136Z,10.86
2023-04-15T07:22:36.074Z,10.96
2023-04-15T07:25:04.446Z,11.07
2023-04-15T07:27:32.790Z,11.12
2023-04-15T07:30:01.098Z,11.19
2023-04-15T07:32:29.058Z,11.31
2023-04-15T07:34:57.069Z,11.41
2023-04-15T07:37:25.146Z,11.50
2023-04-15T07:39:53.836Z,11.59
2023-04-15T07:42:22.306Z,11.69
2023-04-15T07:44:50.235Z,11.82
2023-04-15T07:47:18.166Z,11.99
2023-04-15T07:49:46.580Z,12.05
2023-04-15T07:52:14.493Z,12.14
2023-04-15T07:54:42.556Z,12.24
2023-04-15T07:57:10.697Z,12.31
2023-04-15T07:59:38.637Z,12.27
2023-04-15T08:02:07.046Z,12.28
2023-04-15T08:04:35.319Z,12.36
2023-04-15T08:07:04.982Z,12.55
2023-04-15T08:09:33.029Z,12.79
2023-04-15T08:12:01.076Z,13.03
2023-04-15T08:14:29.495Z,13.22
2023-04-15T08:16:57.431Z,13.48
2023-04-15T08:19:25.386Z,13.65
2023-04-15T08:21:53.339Z,13.81
2023-04-15T08:24:21.663Z,13.95
2023-04-15T08:26:49.569Z,14.03
2023-04-15T08:29:17.503Z,14.10
2023-04-15T08:31:45.771Z,14.17
2023-04-15T08:34:13.719Z,14.18
2023-04-15T08:36:43.356Z,14.23
2023-04-15T08:39:11.414Z,14.33
2023-04-15T08:42:07.307Z,14.49
2023-04-15T08:44:37.068Z,14.71
2023-04-15T08:47:08.751Z,14.87
2023-04-15T08:49:44.214Z,14.97
2023-04-15T08:52:12.418Z,14.99
2023-04-15T08:54:40.511Z,14.97
2023-04-15T08:57:08.784Z,15.06
2023-04-15T08:59:36.713Z,15.07
2023-04-15T09:02:04.788Z,14.94
2023-04-15T09:04:33.957Z,14.69
2023-04-15T09:07:02.285Z,14.51
2023-04-15T09:09:30.260Z,14.41
2023-04-15T09:11:58.242Z,14.34
2023-04-15T09:14:26.164Z,14.31
2023-04-15T09:17:02.566Z,14.26
2023-04-15T09:19:31.648Z,14.12
2023-04-15T09:22:00.363Z,13.98
2023-04-15T09:24:39.458Z,13.86
2023-04-15T09:27:07.481Z,13.90
2023-04-15T09:29:35.446Z,13.98
2023-04-15T09:32:11.465Z,14.07
2023-04-15T09:34:39.358Z,14.07
2023-04-15T09:37:08.172Z,13.98
2023-04-15T09:39:47.454Z,13.94
2023-04-15T09:42:17.168Z,14.04
2023-04-15T09:44:45.553Z,14.25
2023-04-15T09:47:31.627Z,14.58
2023-04-15T09:50:01.966Z,14.84
2023-04-15T09:52:30.775Z,14.94
2023-04-15T09:54:59.947Z,15.07
2023-04-15T09:57:36.733Z,15.18
2023-04-15T10:00:08.294Z,15.24
2023-04-15T10:02:40.157Z,15.27
2023-04-15T10:05:12.293Z,15.32
2023-04-15T10:07:43.547Z,15.40
2023-04-15T10:10:11.783Z,15.39
2023-04-15T10:12:41.759Z,15.43
2023-04-15T10:15:21.838Z,15.45
2023-04-15T10:17:51.221Z,15.40
2023-04-15T10:20:19.830Z,15.42
2023-04-15T10:22:48.867Z,15.46
2023-04-15T10:25:16.992Z,15.58
2023-04-15T10:27:45.606Z,15.78
2023-04-15T10:30:13.826Z,15.93
2023-04-15T10:32:42.755Z,16.13
2023-04-15T10:35:12.090Z,16.45
2023-04-15T10:37:40.121Z,16.86
2023-04-15T10:40:31.734Z,17.15
2023-04-15T10:43:02.199Z,17.27
2023-04-15T10:45:35.647Z,17.38
2023-04-15T10:48:07.459Z,17.57
2023-04-15T10:50:37.803Z,17.58
2023-04-15T10:53:05.927Z,17.52
2023-04-15T10:55:35.402Z,17.43
2023-04-15T10:58:03.411Z,17.35
2023-04-15T11:00:33.188Z,17.36
2023-04-15T11:03:10.342Z,17.36
2023-04-15T11:05:41.629Z,17.25
2023-04-15T11:09:12.050Z,17.24
2023-04-15T11:12:07.236Z,17.17
2023-04-15T11:14:41.644Z,16.98
2023-04-15T11:17:09.741Z,16.83
2023-04-15T11:40:28.793Z,17.04
2023-04-15T11:43:12.566Z,17.11
2023-04-15T11:45:59.021Z,17.08
2023-04-15T11:48:27.775Z,17.11
2023-04-15T11:50:56.309Z,17.17
2023-04-15T11:53:24.012Z,17.21
2023-04-15T11:55:52.699Z,17.22
2023-04-15T11:58:24.666Z,17.32
2023-04-15T12:00:52.686Z,17.38
2023-04-15T12:03:19.776Z,17.37
2023-04-15T12:06:05.696Z,17.20
2023-04-15T12:08:50.877Z,16.94
2023-04-15T12:11:18.283Z,16.77
2023-04-15T12:13:49.268Z,16.72
2023-04-15T12:16:19.394Z,16.69
2023-04-15T12:18:47.696Z,16.67
2023-04-15T12:21:14.999Z,16.72
2023-04-15T12:23:52.682Z,16.82
2023-04-15T12:26:30.739Z,17.01
2023-04-15T12:29:07.055Z,17.36
2023-04-15T12:31:35.517Z,17.89
2023-04-15T12:34:03.613Z,18.36
2023-04-15T12:36:35.693Z,18.74
2023-04-15T12:39:06.315Z,19.09
2023-04-15T12:41:33.056Z,19.45
2023-04-15T12:43:59.981Z,19.80
2023-04-15T12:46:27.237Z,19.99
2023-04-15T12:48:53.961Z,19.87
2023-04-15T12:51:23.389Z,19.52
2023-04-15T12:53:50.392Z,19.22
2023-04-15T12:56:17.558Z,19.00
2023-04-15T12:58:44.159Z,18.91
2023-04-15T13:01:11.132Z,18.92
2023-04-15T13:03:37.840Z,19.01
2023-04-15T13:06:05.454Z,19.09
2023-04-15T13:08:32.539Z,19.22
2023-04-15T13:10:59.463Z,19.47
2023-04-15T13:13:26.789Z,19.76
2023-04-15T13:15:53.353Z,20.02
2023-04-15T13:18:20.035Z,20.11
2023-04-15T13:20:46.572Z,20.09
2023-04-15T13:23:13.211Z,19.98
2023-04-15T13:25:40.514Z,19.84
2023-04-15T13:28:07.070Z,19.83
2023-04-15T13:30:33.667Z,19.94
2023-04-15T13:33:00.201Z,20.08
2023-04-15T13:35:26.742Z,20.04
2023-04-15T13:37:54.368Z,19.92
2023-04-15T13:40:21.120Z,19.85
2023-04-15T13:42:48.066Z,19.80
2023-04-15T13:45:15.624Z,19.67
2023-04-15T14:05:12.634Z,19.23
2023-04-15T14:24:09.821Z,19.98
2023-04-15T14:26:37.760Z,20.21
2023-04-15T14:29:05.951Z,20.37
2023-04-15T14:36:00.131Z,20.31
2023-04-15T14:38:28.224Z,20.24
2023-04-15T14:40:56.246Z,20.19
2023-04-15T14:43:24.280Z,20.23
2023-04-15T14:45:52.308Z,20.26
2023-04-15T14:48:20.511Z,20.25
2023-04-15T17:12:16.313Z,12.00
2023-04-15T17:14:44.507Z,13.55
2023-04-15T17:35:23.615Z,11.35
2023-04-15T17:37:51.703Z,13.03
2023-04-15T17:40:21.441Z,14.54
2023-04-15T17:42:49.532Z,15.47
2023-04-15T17:45:17.654Z,15.84
2023-04-15T17:47:46.182Z,14.52
2023-04-15T17:50:15.065Z,13.27
2023-04-15T17:52:44.192Z,12.50
2023-04-15T17:55:12.668Z,11.99
2023-04-15T17:57:41.040Z,12.43
2023-04-15T18:00:10.808Z,14.15
2023-04-15T18:02:41.907Z,15.36
2023-04-15T18:05:10.600Z,15.06
2023-04-15T18:07:38.710Z,13.63
2023-04-15T18:10:08.349Z,12.65
2023-04-15T18:12:39.013Z,12.00
2023-04-15T18:15:10.471Z,12.41
2023-04-15T18:17:38.531Z,13.79
2023-04-15T18:20:07.444Z,14.29
2023-04-15T18:22:35.719Z,13.15
2023-04-15T18:25:04.704Z,12.60
2023-04-15T18:27:34.623Z,13.53
2023-04-15T18:30:02.630Z,14.35
2023-04-15T18:32:32.947Z,15.15
2023-04-15T18:35:02.137Z,15.26
2023-04-15T18:37:30.307Z,14.00
2023-04-15T18:39:59.025Z,12.86
2023-04-15T18:42:27.418Z,12.42
2023-04-15T18:44:55.478Z,13.64
2023-04-15T18:47:27.016Z,14.94
2023-04-15T18:49:55.664Z,15.30
2023-04-15T18:52:23.631Z,14.14
2023-04-15T18:54:52.022Z,12.97
2023-04-15T18:57:24.984Z,12.50
2023-04-15T19:00:00.045Z,13.80
2023-04-15T19:02:28.463Z,15.05
2023-04-15T19:04:57.345Z,15.37
2023-04-15T19:07:25.455Z,14.20
2023-04-15T19:09:53.688Z,13.02
2023-04-15T19:12:21.624Z,12.55
2023-04-15T19:14:49.942Z,13.74
2023-04-15T19:17:17.921Z,14.90
2023-04-15T19:19:46.174Z,15.65
2023-04-15T19:22:14.417Z,15.76
2023-04-15T19:24:43.305Z,14.60
2023-04-15T19:27:11.324Z,13.46
2023-04-15T19:29:39.571Z,12.97
2023-04-15T19:32:07.665Z,14.00
2023-04-15T19:34:36.001Z,15.12
2023-04-15T19:37:03.971Z,15.80
2023-04-15T19:39:32.164Z,15.86
2023-04-15T19:42:00.393Z,14.66
2023-04-15T19:44:28.608Z,13.34
2023-04-15T19:46:56.937Z,12.78
2023-04-15T19:49:26.754Z,13.70
2023-04-15T19:51:54.658Z,14.43
2023-04-15T19:54:22.896Z,14.94
2023-04-15T19:56:50.893Z,15.33
2023-04-15T19:59:18.913Z,15.30
2023-04-15T20:01:47.018Z,14.10
2023-04-15T20:04:15.141Z,12.82
2023-04-15T20:06:43.128Z,12.27
2023-04-15T20:09:11.619Z,13.29
2023-04-15T20:12:09.986Z,14.31
2023-04-15T20:14:27.807Z,14.91
2023-04-15T20:16:55.703Z,14.78
2023-04-15T20:19:23.647Z,13.47
2023-04-15T20:21:52.699Z,12.23
2023-04-15T20:24:21.660Z,11.72
2023-04-15T20:26:49.775Z,12.75
2023-04-15T20:29:18.204Z,13.81
2023-04-15T20:31:46.456Z,14.49
2023-04-15T20:34:14.926Z,14.59
2023-04-15T20:36:42.915Z,13.37
2023-04-15T20:39:10.885Z,12.06
2023-04-15T20:41:38.817Z,11.42
2023-04-15T20:44:06.725Z,12.42
2023-04-15T20:46:34.706Z,13.52
2023-04-15T20:49:02.794Z,14.23
2023-04-15T20:51:37.360Z,14.36
2023-04-15T20:54:06.231Z,13.07
2023-04-15T20:56:34.088Z,11.88
2023-04-15T20:59:02.563Z,11.26
2023-04-15T21:01:30.648Z,12.17
2023-04-15T21:03:59.539Z,13.03
2023-04-15T21:06:27.984Z,13.54
2023-04-15T21:08:55.951Z,13.97
2023-04-15T21:11:43.160Z,13.93
2023-04-15T21:14:12.516Z,12.62
2023-04-15T21:16:41.211Z,11.83
2023-04-15T21:19:09.832Z,12.82
2023-04-15T21:21:39.769Z,13.92
2023-04-15T21:24:10.381Z,13.86
2023-04-15T21:26:38.553Z,12.49
2023-04-15T21:29:08.692Z,11.36
2023-04-15T21:31:38.764Z,10.47
2023-04-15T21:34:06.804Z,10.17
2023-04-15T21:36:35.312Z,11.38
2023-04-15T21:39:03.468Z,12.36
2023-04-15T21:41:32.800Z,12.87
2023-04-15T21:44:00.976Z,12.93
2023-04-15T21:46:32.837Z,11.73
2023-04-15T21:49:03.786Z,10.48
2023-04-15T21:51:32.801Z,9.60
2023-04-15T21:54:00.788Z,9.31
2023-04-15T21:56:28.770Z,10.51
2023-04-15T21:58:57.661Z,11.59
2023-04-15T22:01:26.677Z,12.26
2023-04-15T22:03:55.030Z,12.56
2023-04-15T22:06:23.212Z,12.40
2023-04-15T22:09:10.651Z,11.05
2023-04-15T22:11:39.408Z,9.66
2023-04-15T22:14:07.428Z,9.21
2023-04-15T22:16:35.361Z,10.34
2023-04-15T22:19:03.494Z,11.46
2023-04-15T22:21:31.979Z,12.18
2023-04-15T22:24:36.706Z,12.57
2023-04-15T22:26:47.849Z,12.36
2023-04-15T22:29:15.833Z,10.97
2023-04-15T22:31:43.883Z,9.73
2023-04-15T22:34:11.987Z,9.22
2023-04-15T22:36:39.876Z,10.39
2023-04-15T22:39:07.939Z,11.55
2023-04-15T22:41:36.510Z,12.34
2023-04-15T22:44:04.456Z,12.91
2023-04-15T22:46:32.422Z,13.34
2023-04-15T22:49:01.009Z,13.18
2023-04-15T22:51:29.290Z,11.88
2023-04-15T22:53:57.369Z,10.63
2023-04-15T22:56:25.554Z,9.71
2023-04-15T22:58:53.514Z,9.86
2023-04-15T23:01:21.466Z,11.07
2023-04-15T23:03:57.339Z,11.96
2023-04-15T23:06:30.348Z,12.53
2023-04-15T23:08:58.272Z,12.34
2023-04-15T23:11:26.158Z,10.96
2023-04-15T23:13:54.127Z,9.65
2023-04-15T23:16:22.455Z,9.09
2023-04-15T23:18:50.488Z,10.20
2023-04-15T23:21:18.352Z,11.30
2023-04-15T23:23:46.258Z,11.93
2023-04-15T23:26:14.277Z,12.25
2023-04-15T23:28:42.176Z,12.17
2023-04-15T23:31:11.343Z,10.79
2023-04-15T23:33:39.278Z,9.72
2023-04-15T23:36:07.578Z,10.40
2023-04-15T23:38:35.707Z,11.27
2023-04-15T23:41:03.649Z,11.85
2023-04-15T23:43:31.725Z,12.27
2023-04-15T23:45:59.599Z,12.60
2023-04-15T23:48:27.474Z,12.89
2023-04-15T23:50:55.408Z,12.86
2023-04-15T23:53:23.347Z,11.61
2023-04-15T23:55:51.413Z,10.36
2023-04-15T23:58:19.296Z,9.72
